Time,TemperatureF,DewpointF,PressureIn,WindDirection,WindDirectionDegrees,WindSpeedMPH,WindSpeedGustMPH,Humidity,HourlyPrecipIn,Conditions,Clouds,dailyrainin,SoftwareType,DateUTC
2013-06-06 00:02:00,62.0,22.0,-100.00,SSW,199,9.0,18.0,21,0.00,,,-99.99,,2013-06-06 00:02:00,
2013-06-06 00:12:00,62.0,25.0,-100.00,SSW,196,11.0,17.0,24,0.00,,,-99.99,,2013-06-06 00:12:00,
2013-06-06 00:22:00,62.0,24.0,-100.00,SSW,200,12.0,17.0,23,0.00,,,-99.99,,2013-06-06 00:22:00,
2013-06-06 00:32:00,62.0,25.0,-100.00,SSW,208,11.0,17.0,24,0.00,,,-99.99,,2013-06-06 00:32:00,
2013-06-06 00:42:00,61.0,24.0,-100.00,SW,220,12.0,19.0,24,0.00,,,-99.99,,2013-06-06 00:42:00,
2013-06-06 00:52:00,62.0,23.0,-100.00,WSW,244,11.0,16.0,22,0.00,,,-99.99,,2013-06-06 00:52:00,
2013-06-06 01:02:00,62.0,18.0,-100.00,SW,230,12.0,18.0,19,0.00,,,-99.99,,2013-06-06 01:02:00,
2013-06-06 01:12:00,61.0,20.0,-100.00,SW,223,11.0,17.0,20,0.00,,,-99.99,,2013-06-06 01:12:00,
2013-06-06 01:22:00,61.0,20.0,-100.00,WSW,237,9.0,13.0,20,0.00,,,-99.99,,2013-06-06 01:22:00,
2013-06-06 01:32:00,61.0,19.0,-100.00,SW,215,6.0,9.0,20,0.00,,,-99.99,,2013-06-06 01:32:00,
2013-06-06 01:42:00,60.0,20.0,-100.00,SW,223,9.0,13.0,20,0.00,,,-99.99,,2013-06-06 01:42:00,
2013-06-06 01:52:00,60.0,19.0,-100.00,WSW,240,9.0,12.0,20,0.00,,,-99.99,,2013-06-06 01:52:00,
2013-06-06 02:02:00,59.0,20.0,-100.00,WSW,253,7.0,10.0,22,0.00,,,-99.99,,2013-06-06 02:02:00,
2013-06-06 02:12:00,59.0,21.0,-100.00,West,277,7.0,12.0,23,0.00,,,-99.99,,2013-06-06 02:12:00,
2013-06-06 02:22:00,57.0,22.0,-100.00,WNW,284,6.0,9.0,25,0.00,,,-99.99,,2013-06-06 02:22:00,
2013-06-06 02:32:00,55.0,22.0,-100.00,WNW,295,4.0,7.0,27,0.00,,,-99.99,,2013-06-06 02:32:00,
2013-06-06 02:42:00,55.0,22.0,-100.00,WNW,295,4.0,7.0,27,0.00,,,-99.99,,2013-06-06 02:42:00,
2013-06-06 02:52:00,55.0,22.0,-100.00,WNW,295,4.0,7.0,27,0.00,,,-99.99,,2013-06-06 02:52:00,
2013-06-06 03:02:00,51.0,20.0,-100.00,NW,306,5.0,6.0,30,0.00,,,-99.99,,2013-06-06 03:02:00,
2013-06-06 03:12:00,51.0,20.0,-100.00,NW,308,6.0,7.0,29,0.00,,,-99.99,,2013-06-06 03:12:00,
2013-06-06 03:22:00,51.0,20.0,-100.00,NNW,336,5.0,7.0,29,0.00,,,-99.99,,2013-06-06 03:22:00,
2013-06-06 03:33:00,50.0,22.0,-100.00,North,4,6.0,10.0,33,0.00,,,-99.99,,2013-06-06 03:33:00,
2013-06-06 03:43:00,49.0,29.0,-100.00,NNE,14,10.0,12.0,45,0.00,,,-99.99,,2013-06-06 03:43:00,
2013-06-06 03:53:00,-999.0,-99.9,-100.00,NNE,18,7.0,11.0,-999,-99.99,,,-99.99,,2013-06-06 03:53:00,
2013-06-06 04:03:00,49.0,29.0,-100.00,NE,35,6.0,11.0,46,0.00,,,-99.99,,2013-06-06 04:03:00,
2013-06-06 04:13:00,48.0,29.0,-100.00,NE,35,6.0,9.0,48,0.00,,,-99.99,,2013-06-06 04:13:00,
2013-06-06 04:23:00,49.0,29.0,-100.00,NE,40,9.0,15.0,45,0.00,,,-99.99,,2013-06-06 04:23:00,
2013-06-06 04:33:00,48.0,28.0,-100.00,ENE,58,7.0,14.0,46,0.00,,,-99.99,,2013-06-06 04:33:00,
2013-06-06 04:42:00,49.0,27.0,-100.00,ENE,69,5.0,7.0,42,0.00,,,-99.99,,2013-06-06 04:42:00,
2013-06-06 04:53:00,48.0,27.0,-100.00,ESE,121,1.0,4.0,44,0.00,,,-99.99,,2013-06-06 04:53:00,
2013-06-06 05:02:00,47.0,27.0,-100.00,East,83,1.0,4.0,45,0.00,,,-99.99,,2013-06-06 05:02:00,
2013-06-06 05:12:00,45.0,26.0,-100.00,ESE,104,2.0,4.0,46,0.00,,,-99.99,,2013-06-06 05:12:00,
2013-06-06 05:22:00,46.0,25.0,-100.00,East,82,2.0,4.0,43,0.00,,,-99.99,,2013-06-06 05:22:00,
2013-06-06 05:32:00,-999.0,-99.9,-100.00,SE,140,1.0,4.0,-999,-99.99,,,-99.99,,2013-06-06 05:32:00,
2013-06-06 05:42:00,45.0,24.0,-100.00,East,99,1.0,4.0,45,0.00,,,-99.99,,2013-06-06 05:42:00,
2013-06-06 05:52:00,44.0,24.0,-100.00,SW,224,1.0,3.0,44,0.00,,,-99.99,,2013-06-06 05:52:00,
2013-06-06 06:02:00,45.0,24.0,-100.00,SE,130,1.0,4.0,43,0.00,,,-99.99,,2013-06-06 06:02:00,
2013-06-06 06:12:00,45.0,24.0,-100.00,ESE,119,4.0,6.0,43,0.00,,,-99.99,,2013-06-06 06:12:00,
2013-06-06 06:22:00,45.0,24.0,-100.00,East,96,4.0,7.0,42,0.00,,,-99.99,,2013-06-06 06:22:00,
2013-06-06 06:33:00,-999.0,-99.9,-100.00,East,97,3.0,6.0,-999,-99.99,,,-99.99,,2013-06-06 06:33:00,
2013-06-06 06:42:00,44.0,23.0,-100.00,East,97,3.0,7.0,43,0.00,,,-99.99,,2013-06-06 06:42:00,
2013-06-06 07:02:00,44.0,23.0,-100.00,ESE,103,4.0,7.0,43,0.00,,,-99.99,,2013-06-06 07:02:00,
2013-06-06 07:12:00,43.0,23.0,-100.00,ENE,76,2.0,7.0,45,0.00,,,-99.99,,2013-06-06 07:12:00,
2013-06-06 07:22:00,42.0,23.0,-100.00,NE,54,1.0,4.0,46,0.00,,,-99.99,,2013-06-06 07:22:00,
2013-06-06 07:32:00,42.0,23.0,-100.00,SSE,160,1.0,4.0,47,0.00,,,-99.99,,2013-06-06 07:32:00,
2013-06-06 07:42:00,42.0,23.0,-100.00,East,97,2.0,4.0,46,0.00,,,-99.99,,2013-06-06 07:42:00,
2013-06-06 07:52:00,41.0,23.0,-100.00,ENE,71,2.0,4.0,48,0.00,,,-99.99,,2013-06-06 07:52:00,
2013-06-06 08:02:00,42.0,23.0,-100.00,ESE,106,4.0,6.0,47,0.00,,,-99.99,,2013-06-06 08:02:00,
2013-06-06 08:12:00,42.0,23.0,-100.00,ESE,109,3.0,6.0,47,0.00,,,-99.99,,2013-06-06 08:12:00,
2013-06-06 08:22:00,42.0,22.0,-100.00,East,100,7.0,10.0,45,0.00,,,-99.99,,2013-06-06 08:22:00,
2013-06-06 08:32:00,42.0,22.0,-100.00,East,92,7.0,9.0,45,0.00,,,-99.99,,2013-06-06 08:32:00,
2013-06-06 08:42:00,42.0,22.0,-100.00,East,93,7.0,11.0,45,0.00,,,-99.99,,2013-06-06 08:42:00,
2013-06-06 08:52:00,42.0,22.0,-100.00,East,96,7.0,11.0,45,0.00,,,-99.99,,2013-06-06 08:52:00,
2013-06-06 09:02:00,42.0,23.0,-100.00,East,99,7.0,11.0,46,0.00,,,-99.99,,2013-06-06 09:02:00,
2013-06-06 09:12:00,42.0,23.0,-100.00,ESE,102,7.0,10.0,47,0.00,,,-99.99,,2013-06-06 09:12:00,
2013-06-06 09:22:00,42.0,23.0,-100.00,East,99,7.0,9.0,47,0.00,,,-99.99,,2013-06-06 09:22:00,
2013-06-06 09:33:00,42.0,23.0,-100.00,East,97,7.0,9.0,47,0.00,,,-99.99,,2013-06-06 09:33:00,
2013-06-06 09:43:00,42.0,24.0,-100.00,East,95,7.0,11.0,48,0.00,,,-99.99,,2013-06-06 09:43:00,
2013-06-06 09:53:00,42.0,23.0,-100.00,East,90,9.0,11.0,46,0.00,,,-99.99,,2013-06-06 09:53:00,
2013-06-06 10:03:00,43.0,23.0,-100.00,East,92,7.0,9.0,45,0.00,,,-99.99,,2013-06-06 10:03:00,
2013-06-06 10:12:00,43.0,23.0,-100.00,East,79,6.0,8.0,45,0.00,,,-99.99,,2013-06-06 10:12:00,
2013-06-06 10:22:00,42.0,23.0,-100.00,NNW,342,1.0,6.0,47,0.00,,,-99.99,,2013-06-06 10:22:00,
2013-06-06 10:33:00,42.0,24.0,-100.00,NNW,347,1.0,4.0,47,0.00,,,-99.99,,2013-06-06 10:33:00,
2013-06-06 10:42:00,42.0,23.0,-100.00,ENE,76,4.0,9.0,47,0.00,,,-99.99,,2013-06-06 10:42:00,
2013-06-06 10:52:00,42.0,23.0,-100.00,North,0,1.0,2.0,47,0.00,,,-99.99,,2013-06-06 10:52:00,
2013-06-06 11:02:00,42.0,23.0,-100.00,North,353,1.0,4.0,46,0.00,,,-99.99,,2013-06-06 11:02:00,
2013-06-06 11:12:00,42.0,24.0,-100.00,NE,56,1.0,4.0,47,0.00,,,-99.99,,2013-06-06 11:12:00,
2013-06-06 11:22:00,41.0,24.0,-100.00,NE,47,1.0,4.0,49,0.00,,,-99.99,,2013-06-06 11:22:00,
2013-06-06 11:32:00,42.0,24.0,-100.00,East,92,7.0,11.0,50,0.00,,,-99.99,,2013-06-06 11:32:00,
2013-06-06 11:42:00,42.0,24.0,-100.00,East,92,8.0,11.0,50,0.00,,,-99.99,,2013-06-06 11:42:00,
2013-06-06 11:52:00,41.0,24.0,-100.00,East,96,7.0,11.0,51,0.00,,,-99.99,,2013-06-06 11:52:00,
2013-06-06 12:02:00,40.0,24.0,-100.00,SE,145,2.0,6.0,52,0.00,,,-99.99,,2013-06-06 12:02:00,
2013-06-06 12:12:00,41.0,25.0,-100.00,East,97,2.0,6.0,51,0.00,,,-99.99,,2013-06-06 12:12:00,
2013-06-06 12:23:00,-999.0,-99.9,-100.00,East,95,7.0,9.0,-999,-99.99,,,-99.99,,2013-06-06 12:23:00,
2013-06-06 12:32:00,44.0,25.0,-100.00,East,90,7.0,11.0,48,0.00,,,-99.99,,2013-06-06 12:32:00,
2013-06-06 12:42:00,45.0,25.0,-100.00,East,89,6.0,9.0,45,0.00,,,-99.99,,2013-06-06 12:42:00,
2013-06-06 12:52:00,47.0,25.0,-100.00,East,95,2.0,6.0,43,0.00,,,-99.99,,2013-06-06 12:52:00,
2013-06-06 13:03:00,48.0,26.0,-100.00,ESE,106,1.0,4.0,42,0.00,,,-99.99,,2013-06-06 13:03:00,
2013-06-06 13:12:00,48.0,26.0,-100.00,East,92,3.0,6.0,42,0.00,,,-99.99,,2013-06-06 13:12:00,
2013-06-06 13:22:00,50.0,26.0,-100.00,ESE,103,2.0,4.0,39,0.00,,,-99.99,,2013-06-06 13:22:00,
2013-06-06 13:32:00,51.0,28.0,-100.00,ESE,113,2.0,4.0,41,0.00,,,-99.99,,2013-06-06 13:32:00,
2013-06-06 13:42:00,52.0,25.0,-100.00,SE,138,1.0,3.0,35,0.00,,,-99.99,,2013-06-06 13:42:00,
2013-06-06 13:52:00,53.0,26.0,-100.00,South,176,1.0,2.0,34,0.00,,,-99.99,,2013-06-06 13:52:00,
2013-06-06 14:03:00,53.0,26.0,-100.00,South,189,1.0,2.0,35,0.00,,,-99.99,,2013-06-06 14:03:00,
2013-06-06 14:12:00,54.0,28.0,-100.00,SSW,203,2.0,4.0,37,0.00,,,-99.99,,2013-06-06 14:12:00,
2013-06-06 14:22:00,54.0,26.0,-100.00,WSW,248,3.0,5.0,34,0.00,,,-99.99,,2013-06-06 14:22:00,
2013-06-06 14:33:00,54.0,26.0,-100.00,SW,224,2.0,4.0,32,0.00,,,-99.99,,2013-06-06 14:33:00,
2013-06-06 14:43:00,56.0,25.0,-100.00,SW,216,2.0,6.0,31,0.00,,,-99.99,,2013-06-06 14:43:00,
2013-06-06 14:52:00,56.0,25.0,-100.00,WSW,243,3.0,5.0,30,0.00,,,-99.99,,2013-06-06 14:52:00,
2013-06-06 15:03:00,56.0,25.0,-100.00,SSW,208,3.0,6.0,29,0.00,,,-99.99,,2013-06-06 15:03:00,
2013-06-06 15:12:00,58.0,26.0,-100.00,WSW,243,2.0,4.0,29,0.00,,,-99.99,,2013-06-06 15:12:00,
2013-06-06 15:23:00,58.0,29.0,-100.00,West,261,4.0,7.0,33,0.00,,,-99.99,,2013-06-06 15:23:00,
2013-06-06 15:33:00,58.0,29.0,-100.00,West,264,4.0,7.0,33,0.00,,,-99.99,,2013-06-06 15:33:00,
2013-06-06 15:43:00,59.0,28.0,-100.00,West,268,4.0,9.0,31,0.00,,,-99.99,,2013-06-06 15:43:00,
2013-06-06 15:52:00,61.0,29.0,-100.00,West,281,4.0,7.0,29,0.00,,,-99.99,,2013-06-06 15:52:00,
2013-06-06 16:03:00,-999.0,-99.9,-100.00,WNW,285,4.0,9.0,-999,-99.99,,,-99.99,,2013-06-06 16:03:00,
2013-06-06 16:12:00,61.0,27.0,-100.00,WSW,253,6.0,10.0,28,0.00,,,-99.99,,2013-06-06 16:12:00,
2013-06-06 16:23:00,60.0,24.0,-100.00,WSW,237,5.0,9.0,25,0.00,,,-99.99,,2013-06-06 16:23:00,
2013-06-06 16:33:00,60.0,26.0,-100.00,WSW,240,5.0,12.0,26,0.00,,,-99.99,,2013-06-06 16:33:00,
2013-06-06 16:43:00,61.0,27.0,-100.00,WSW,248,6.0,12.0,28,0.00,,,-99.99,,2013-06-06 16:43:00,
2013-06-06 16:52:00,62.0,31.0,-100.00,WNW,287,3.0,9.0,31,0.00,,,-99.99,,2013-06-06 16:52:00,
2013-06-06 17:03:00,63.0,28.0,-100.00,WSW,257,5.0,11.0,27,0.00,,,-99.99,,2013-06-06 17:03:00,
2013-06-06 17:13:00,62.0,29.0,-100.00,SSW,196,3.0,7.0,28,0.00,,,-99.99,,2013-06-06 17:13:00,
2013-06-06 17:23:00,65.0,30.0,-100.00,SW,219,5.0,12.0,27,0.00,,,-99.99,,2013-06-06 17:23:00,
2013-06-06 17:32:00,66.0,30.0,-100.00,WNW,292,6.0,11.0,26,0.00,,,-99.99,,2013-06-06 17:32:00,
2013-06-06 17:42:00,66.0,30.0,-100.00,NW,304,6.0,16.0,26,0.00,,,-99.99,,2013-06-06 17:42:00,
2013-06-06 17:52:00,64.0,29.0,-100.00,WSW,243,5.0,14.0,27,0.00,,,-99.99,,2013-06-06 17:52:00,
2013-06-06 18:03:00,65.0,30.0,-100.00,WSW,251,7.0,15.0,26,0.00,,,-99.99,,2013-06-06 18:03:00,
2013-06-06 18:13:00,65.0,28.0,-100.00,WSW,244,7.0,17.0,25,0.00,,,-99.99,,2013-06-06 18:13:00,
2013-06-06 18:23:00,63.0,27.0,-100.00,SW,229,9.0,14.0,25,0.00,,,-99.99,,2013-06-06 18:23:00,
2013-06-06 18:33:00,65.0,28.0,-100.00,SW,226,3.0,11.0,24,0.00,,,-99.99,,2013-06-06 18:33:00,
2013-06-06 18:43:00,65.0,29.0,-100.00,West,272,7.0,17.0,26,0.00,,,-99.99,,2013-06-06 18:43:00,
2013-06-06 18:52:00,64.0,27.0,-100.00,SSW,206,6.0,12.0,24,0.00,,,-99.99,,2013-06-06 18:52:00,
2013-06-06 19:03:00,66.0,28.0,-100.00,ENE,73,4.0,16.0,24,0.00,,,-99.99,,2013-06-06 19:03:00,
2013-06-06 19:12:00,66.0,28.0,-100.00,SW,226,10.0,18.0,24,0.00,,,-99.99,,2013-06-06 19:12:00,
2013-06-06 19:23:00,65.0,29.0,-100.00,SSW,205,6.0,11.0,25,0.00,,,-99.99,,2013-06-06 19:23:00,
2013-06-06 19:33:00,66.0,28.0,-100.00,South,184,6.0,14.0,24,0.00,,,-99.99,,2013-06-06 19:33:00,
2013-06-06 19:42:00,66.0,29.0,-100.00,SSW,199,7.0,14.0,25,0.00,,,-99.99,,2013-06-06 19:42:00,
2013-06-06 19:52:00,68.0,27.0,-100.00,West,270,7.0,14.0,22,0.00,,,-99.99,,2013-06-06 19:52:00,
2013-06-06 20:03:00,66.0,27.0,-100.00,SSW,212,8.0,18.0,22,0.00,,,-99.99,,2013-06-06 20:03:00,
2013-06-06 20:13:00,67.0,29.0,-100.00,SW,232,9.0,17.0,24,0.00,,,-99.99,,2013-06-06 20:13:00,
2013-06-06 20:22:00,66.0,26.0,-100.00,South,189,7.0,12.0,22,0.00,,,-99.99,,2013-06-06 20:22:00,
2013-06-06 20:33:00,67.0,29.0,-100.00,SSE,157,7.0,18.0,24,0.00,,,-99.99,,2013-06-06 20:33:00,
2013-06-06 20:42:00,66.0,27.0,-100.00,SW,224,12.0,18.0,23,0.00,,,-99.99,,2013-06-06 20:42:00,
2013-06-06 20:52:00,67.0,29.0,-100.00,WSW,239,7.0,12.0,24,0.00,,,-99.99,,2013-06-06 20:52:00,
2013-06-06 21:03:00,67.0,27.0,-100.00,SSW,213,11.0,21.0,22,0.00,,,-99.99,,2013-06-06 21:03:00,
2013-06-06 21:12:00,68.0,29.0,-100.00,SW,216,11.0,17.0,23,0.00,,,-99.99,,2013-06-06 21:12:00,
2013-06-06 21:22:00,66.0,28.0,-100.00,SSW,202,4.0,12.0,23,0.00,,,-99.99,,2013-06-06 21:22:00,
2013-06-06 21:33:00,66.0,29.0,-100.00,WSW,254,7.0,13.0,24,0.00,,,-99.99,,2013-06-06 21:33:00,
2013-06-06 21:43:00,66.0,26.0,-100.00,WSW,251,6.0,12.0,22,0.00,,,-99.99,,2013-06-06 21:43:00,
2013-06-06 21:53:00,65.0,28.0,-100.00,SW,234,9.0,14.0,25,0.00,,,-99.99,,2013-06-06 21:53:00,
2013-06-06 22:02:00,66.0,29.0,-100.00,West,271,6.0,10.0,25,0.00,,,-99.99,,2013-06-06 22:02:00,
2013-06-06 22:13:00,65.0,28.0,-100.00,West,264,7.0,12.0,25,0.00,,,-99.99,,2013-06-06 22:13:00,
2013-06-06 22:23:00,65.0,29.0,-100.00,WSW,256,7.0,11.0,26,0.00,,,-99.99,,2013-06-06 22:23:00,
2013-06-06 22:33:00,65.0,28.0,-100.00,WSW,253,4.0,9.0,24,0.00,,,-99.99,,2013-06-06 22:33:00,
2013-06-06 22:43:00,67.0,29.0,-100.00,West,264,3.0,9.0,23,0.00,,,-99.99,,2013-06-06 22:43:00,
2013-06-06 22:52:00,69.0,31.0,-100.00,West,264,6.0,11.0,24,0.00,,,-99.99,,2013-06-06 22:52:00,
2013-06-06 23:02:00,69.0,27.0,-100.00,West,270,8.0,19.0,21,0.00,,,-99.99,,2013-06-06 23:02:00,
2013-06-06 23:12:00,70.0,27.0,-100.00,WSW,247,14.0,22.0,20,0.00,,,-99.99,,2013-06-06 23:12:00,
2013-06-06 23:22:00,66.0,27.0,-100.00,WSW,244,12.0,17.0,23,0.00,,,-99.99,,2013-06-06 23:22:00,
2013-06-06 23:33:00,66.0,28.0,-100.00,WSW,240,10.0,16.0,24,0.00,,,-99.99,,2013-06-06 23:33:00,
2013-06-06 23:42:00,65.0,29.0,-100.00,WSW,257,5.0,9.0,25,0.00,,,-99.99,,2013-06-06 23:42:00,
2013-06-06 23:52:00,67.0,28.0,-100.00,WSW,240,3.0,6.0,23,0.00,,,-99.99,,2013-06-06 23:52:00,